Time;durP1;ratioP1;P1;durP2;ratioP2;P2;SDS_P1;SDS_P2;PMS_P1;PMS_P2;Temp;Humidity;BMP_temperature;BMP_pressure;BME280_temperature;BME280_humidity;BME280_pressure;Samples;Min_cycle;Max_cycle;Signal;HPM_P1;HPM_P2
2022/11/28 00:01:27;;;;;;;14.52;10.07;;;6.30;99.90;;;;;;4937951;28;94969;-35
2022/11/28 00:03:53;;;;;;;13.57;8.63;;;6.30;99.90;;;;;;4937072;28;93230;-34
2022/11/28 00:06:19;;;;;;;9.13;8.10;;;6.40;99.90;;;;;;4937388;28;94278;-31
2022/11/28 00:08:45;;;;;;;12.13;9.30;;;6.50;99.90;;;;;;4937511;28;94822;-34
2022/11/28 00:11:13;;;;;;;10.38;8.57;;;6.40;99.90;;;;;;4937529;28;94667;-34
2022/11/28 00:13:39;;;;;;;13.98;8.73;;;6.40;99.90;;;;;;4936828;28;95318;-33
2022/11/28 00:16:06;;;;;;;9.75;8.80;;;6.40;99.90;;;;;;4937290;28;94176;-35
2022/11/28 00:18:33;;;;;;;12.38;8.35;;;6.40;99.90;;;;;;4937469;28;94915;-31
2022/11/28 00:21:00;;;;;;;14.65;8.82;;;6.40;99.90;;;;;;4939325;28;94692;-35
2022/11/28 00:23:25;;;;;;;11.27;8.70;;;6.40;99.90;;;;;;4941156;28;93508;-32
2022/11/28 00:26:13;;;;;;;10.57;8.38;;;6.40;99.90;;;;;;4940887;28;92236;-31
2022/11/28 00:28:38;;;;;;;10.82;8.85;;;6.50;99.90;;;;;;4940744;28;95122;-33
2022/11/28 00:31:04;;;;;;;9.93;8.15;;;6.50;99.90;;;;;;4941103;28;95113;-33
2022/11/28 00:33:31;;;;;;;12.75;9.00;;;6.50;99.90;;;;;;4940609;28;92694;-32
2022/11/28 00:35:59;;;;;;;13.80;9.65;;;6.50;99.90;;;;;;4940264;28;94276;-33
2022/11/28 00:38:24;;;;;;;13.68;9.63;;;6.40;99.90;;;;;;4939654;28;95406;-32
2022/11/28 00:40:58;;;;;;;11.98;8.82;;;6.50;99.90;;;;;;4940625;28;95574;-34
2022/11/28 00:43:24;;;;;;;12.30;10.13;;;6.50;99.90;;;;;;4940558;28;93011;-33
2022/11/28 00:45:49;;;;;;;11.13;9.43;;;6.50;99.90;;;;;;4939956;28;94158;-33
2022/11/28 00:48:15;;;;;;;10.45;9.45;;;6.50;99.90;;;;;;4940585;28;93140;-33
2022/11/28 00:50:40;;;;;;;10.68;9.73;;;6.50;99.90;;;;;;4940327;28;95065;-34
2022/11/28 00:53:06;;;;;;;11.10;9.02;;;6.50;99.90;;;;;;4940491;28;93166;-34
2022/11/28 00:55:32;;;;;;;12.55;9.40;;;6.50;99.90;;;;;;4940291;28;92299;-33
2022/11/28 00:57:57;;;;;;;14.20;10.27;;;6.50;99.90;;;;;;4940490;28;95079;-33
2022/11/28 01:00:23;;;;;;;11.38;9.65;;;6.60;99.90;;;;;;4939434;28;94657;-34
2022/11/28 01:02:49;;;;;;;11.93;9.88;;;6.60;99.90;;;;;;4940692;28;94542;-35
2022/11/28 01:05:15;;;;;;;11.20;10.05;;;6.60;99.90;;;;;;4940142;28;93939;-33
2022/11/28 01:07:41;;;;;;;12.65;10.65;;;6.50;99.90;;;;;;4939063;28;94652;-35
2022/11/28 01:10:09;;;;;;;12.68;9.10;;;6.50;99.90;;;;;;4939415;28;94520;-35
2022/11/28 01:12:34;;;;;;;10.18;8.88;;;6.60;99.90;;;;;;4938509;28;94256;-35
2022/11/28 01:15:00;;;;;;;12.90;9.48;;;6.60;99.90;;;;;;4940248;28;93512;-34
2022/11/28 01:17:25;;;;;;;14.15;9.98;;;6.60;99.90;;;;;;4939872;28;94567;-33
2022/11/28 01:19:51;;;;;;;12.38;10.48;;;6.60;99.90;;;;;;4938727;28;94686;-34
2022/11/28 01:22:18;;;;;;;15.57;10.75;;;6.60;99.90;;;;;;4940174;28;94655;-32
2022/11/28 01:24:43;;;;;;;9.63;8.68;;;6.60;99.90;;;;;;4939096;28;94725;-32
2022/11/28 01:27:09;;;;;;;11.38;9.98;;;6.60;99.90;;;;;;4939638;28;96069;-35
2022/11/28 01:29:34;;;;;;;13.65;10.18;;;6.50;99.90;;;;;;4939361;28;95120;-35
2022/11/28 01:32:00;;;;;;;13.80;9.95;;;6.60;99.90;;;;;;4938167;28;92216;-36
2022/11/28 01:34:25;;;;;;;11.52;9.27;;;6.60;99.90;;;;;;4939969;28;94757;-32
2022/11/28 01:36:51;;;;;;;12.10;9.05;;;6.60;99.90;;;;;;4938638;28;95686;-33
2022/11/28 01:39:17;;;;;;;17.77;9.70;;;6.60;99.90;;;;;;4939770;28;94864;-33
2022/11/28 01:41:42;;;;;;;15.15;10.70;;;6.70;99.90;;;;;;4939814;28;92154;-35
2022/11/28 01:44:28;;;;;;;11.88;9.45;;;6.70;99.90;;;;;;4939654;28;94285;-34
2022/11/28 01:46:54;;;;;;;12.10;10.23;;;6.70;99.90;;;;;;4908622;28;95294;-33
2022/11/28 01:49:33;;;;;;;12.55;9.95;;;6.70;99.90;;;;;;4938697;28;94619;-32
2022/11/28 01:52:02;;;;;;;10.77;9.77;;;6.70;99.90;;;;;;4939106;28;94397;-34
2022/11/28 01:54:30;;;;;;;11.63;10.02;;;6.70;99.90;;;;;;4939095;28;95037;-33
2022/11/28 01:57:06;;;;;;;9.95;8.98;;;6.70;99.90;;;;;;4938148;28;95077;-34
2022/11/28 01:59:44;;;;;;;13.93;10.55;;;6.60;99.90;;;;;;4939297;28;94148;-33
2022/11/28 02:02:16;;;;;;;12.15;10.93;;;6.60;99.90;;;;;;4939136;28;93235;-32
2022/11/28 02:04:44;;;;;;;12.27;10.18;;;6.60;99.90;;;;;;4939489;28;94535;-32
2022/11/28 02:07:10;;;;;;;11.27;9.67;;;6.60;99.90;;;;;;4938689;28;94876;-32
2022/11/28 02:09:35;;;;;;;14.07;10.10;;;6.70;99.90;;;;;;4938789;28;94565;-35
2022/11/28 02:12:09;;;;;;;10.65;9.32;;;6.70;99.90;;;;;;4939356;28;93966;-36
2022/11/28 02:14:40;;;;;;;11.50;10.27;;;6.70;99.90;;;;;;4939230;28;94500;-35
2022/11/28 02:17:42;;;;;;;10.48;8.63;;;6.60;99.90;;;;;;4937083;28;95722;-35
2022/11/28 02:20:14;;;;;;;19.48;11.85;;;6.70;99.90;;;;;;4930411;28;95514;-35
2022/11/28 02:23:18;;;;;;;12.80;9.13;;;6.70;99.90;;;;;;4937792;28;93735;-34
2022/11/28 02:26:09;;;;;;;10.27;9.27;;;6.70;99.90;;;;;;4935507;28;92080;-34
2022/11/28 02:29:02;;;;;;;13.35;9.00;;;6.70;99.90;;;;;;4925705;28;95280;-33
2022/11/28 02:31:51;;;;;;;11.23;10.00;;;6.70;99.90;;;;;;4938627;28;94732;-32
2022/11/28 02:34:30;;;;;;;12.38;8.85;;;6.70;99.90;;;;;;4907216;28;95164;-32
2022/11/28 02:37:16;;;;;;;13.93;10.80;;;6.80;99.90;;;;;;4938857;28;91766;-33
2022/11/28 02:40:03;;;;;;;12.98;10.45;;;6.80;99.90;;;;;;4936738;28;96524;-33
2022/11/28 02:43:06;;;;;;;11.13;10.02;;;6.80;99.90;;;;;;4937436;28;94914;-34
2022/11/28 02:46:09;;;;;;;10.82;9.73;;;6.70;99.90;;;;;;4924309;28;94078;-35
2022/11/28 02:48:56;;;;;;;14.88;12.18;;;6.70;99.90;;;;;;4938243;28;93575;-34
2022/11/28 02:51:39;;;;;;;14.48;11.00;;;6.70;99.90;;;;;;4937778;28;95746;-34
2022/11/28 02:54:08;;;;;;;13.65;10.98;;;6.70;99.90;;;;;;4925092;28;94214;-33
2022/11/28 02:56:34;;;;;;;15.02;12.32;;;6.70;99.90;;;;;;4937778;28;92230;-34
2022/11/28 02:59:00;;;;;;;12.15;9.68;;;6.70;99.90;;;;;;4937747;28;93167;-34
2022/11/28 03:01:32;;;;;;;11.45;10.25;;;6.70;99.90;;;;;;4938274;28;94980;-32
2022/11/28 03:04:27;;;;;;;10.77;9.77;;;6.80;99.90;;;;;;4937367;28;94173;-33
2022/11/28 03:07:36;;;;;;;15.88;12.20;;;6.80;99.90;;;;;;4925362;28;93489;-33
2022/11/28 03:10:19;;;;;;;12.10;11.05;;;6.80;99.90;;;;;;4928924;28;94918;-36
2022/11/28 03:13:06;;;;;;;12.90;11.25;;;6.80;99.90;;;;;;4936773;28;95921;-33
2022/11/28 03:16:09;;;;;;;13.38;12.10;;;6.80;99.90;;;;;;4937158;28;95722;-33
2022/11/28 03:18:41;;;;;;;12.02;10.45;;;6.80;99.90;;;;;;4937118;28;93902;-33
2022/11/28 03:21:21;;;;;;;13.75;12.45;;;6.80;99.90;;;;;;4937133;28;92750;-34
2022/11/28 03:24:18;;;;;;;14.70;12.05;;;6.90;99.90;;;;;;4936704;28;95024;-34
2022/11/28 03:27:01;;;;;;;15.52;12.25;;;6.90;99.90;;;;;;4936428;28;94550;-35
2022/11/28 03:29:58;;;;;;;14.02;11.77;;;7.00;99.90;;;;;;4937132;28;92207;-33
2022/11/28 03:32:29;;;;;;;13.33;11.93;;;6.90;99.90;;;;;;4934780;28;93906;-33
2022/11/28 03:35:08;;;;;;;17.38;11.95;;;7.00;99.90;;;;;;4937474;28;94799;-33
2022/11/28 03:37:42;;;;;;;13.45;12.10;;;7.00;99.90;;;;;;4937454;28;95964;-34
2022/11/28 03:40:19;;;;;;;14.93;12.45;;;6.90;99.90;;;;;;4934310;28;94526;-34
2022/11/28 03:42:52;;;;;;;13.52;11.93;;;7.00;99.90;;;;;;4936546;28;93993;-33
2022/11/28 03:45:23;;;;;;;14.85;11.73;;;7.00;99.90;;;;;;4936911;28;94918;-34
2022/11/28 03:47:56;;;;;;;15.25;11.52;;;7.00;99.90;;;;;;4937390;28;93430;-34
2022/11/28 03:50:45;;;;;;;15.30;12.25;;;7.00;99.90;;;;;;4937775;28;92104;-33
2022/11/28 03:53:16;;;;;;;18.70;12.23;;;7.00;99.90;;;;;;4936602;28;92240;-33
2022/11/28 03:55:56;;;;;;;17.33;14.23;;;7.10;99.90;;;;;;4933904;28;94839;-33
2022/11/28 03:58:38;;;;;;;13.80;12.52;;;7.10;99.90;;;;;;4937249;28;95075;-35
2022/11/28 04:01:18;;;;;;;13.82;12.35;;;7.10;99.90;;;;;;4935876;28;94575;-34
2022/11/28 04:03:56;;;;;;;17.10;14.18;;;7.10;99.90;;;;;;4936591;28;93963;-35
2022/11/28 04:06:51;;;;;;;14.85;13.10;;;7.10;99.90;;;;;;4936194;28;97041;-34
2022/11/28 04:09:24;;;;;;;15.38;13.68;;;7.10;99.90;;;;;;4925855;28;96307;-33
2022/11/28 04:12:06;;;;;;;17.40;15.57;;;7.10;99.90;;;;;;4937173;28;93835;-34
2022/11/28 04:14:40;;;;;;;16.63;14.80;;;7.10;99.90;;;;;;4936373;28;93492;-34
2022/11/28 04:17:18;;;;;;;23.52;15.85;;;7.10;99.90;;;;;;4935472;28;95574;-36
2022/11/28 04:20:11;;;;;;;19.15;14.20;;;7.10;99.90;;;;;;4936044;28;94688;-33
2022/11/28 04:22:46;;;;;;;17.52;15.68;;;7.10;99.90;;;;;;4937048;28;94624;-35
2022/11/28 04:25:15;;;;;;;17.00;15.38;;;7.20;99.90;;;;;;4937012;28;92088;-34
2022/11/28 04:27:46;;;;;;;18.88;16.42;;;7.10;99.90;;;;;;4936046;28;95330;-33
2022/11/28 04:30:12;;;;;;;19.60;16.50;;;7.20;99.90;;;;;;4936570;28;94773;-34
2022/11/28 04:32:44;;;;;;;21.60;18.38;;;7.10;99.90;;;;;;4935675;28;94451;-32
2022/11/28 04:35:21;;;;;;;18.15;16.10;;;7.20;99.90;;;;;;4936749;28;92396;-35
2022/11/28 04:37:50;;;;;;;19.35;17.42;;;7.10;99.90;;;;;;4935836;28;94777;-33
2022/11/28 04:40:19;;;;;;;19.48;17.75;;;7.20;99.90;;;;;;4936065;28;94898;-33
2022/11/28 04:42:50;;;;;;;29.02;19.90;;;7.10;99.90;;;;;;4936758;28;93038;-33
2022/11/28 04:45:21;;;;;;;23.20;18.20;;;7.20;99.90;;;;;;4936501;28;92443;-34
2022/11/28 04:47:47;;;;;;;24.55;19.45;;;7.20;99.90;;;;;;4922794;28;94779;-33
2022/11/28 04:50:13;;;;;;;21.40;19.13;;;7.30;99.90;;;;;;4937113;28;94762;-34
2022/11/28 04:53:04;;;;;;;18.88;16.90;;;7.30;99.90;;;;;;4936553;28;92698;-34
2022/11/28 04:55:40;;;;;;;21.60;17.73;;;7.30;99.90;;;;;;4935918;28;94204;-35
2022/11/28 04:58:13;;;;;;;23.23;18.83;;;7.30;99.90;;;;;;4935992;28;96044;-33
2022/11/28 05:00:39;;;;;;;28.20;20.45;;;7.30;99.90;;;;;;4936121;28;95759;-36
2022/11/28 05:03:07;;;;;;;23.15;20.77;;;7.30;99.90;;;;;;4936115;28;93965;-34
2022/11/28 05:05:45;;;;;;;20.95;18.80;;;7.30;99.90;;;;;;4935543;28;93785;-33
2022/11/28 05:08:10;;;;;;;24.13;20.35;;;7.30;99.90;;;;;;4938852;28;94712;-34
2022/11/28 05:10:36;;;;;;;21.67;19.38;;;7.40;99.90;;;;;;4939250;28;94643;-33
2022/11/28 05:13:02;;;;;;;21.70;19.17;;;7.50;99.90;;;;;;4933997;28;93439;-32
2022/11/28 05:15:28;;;;;;;22.02;19.92;;;7.50;99.90;;;;;;4938943;28;92828;-33
2022/11/28 05:17:53;;;;;;;23.92;21.08;;;7.50;99.90;;;;;;4937429;28;95638;-33
2022/11/28 05:20:19;;;;;;;22.20;19.90;;;7.50;99.90;;;;;;4938954;28;95048;-34
2022/11/28 05:22:45;;;;;;;25.80;21.02;;;7.50;99.90;;;;;;4939241;28;94810;-35
2022/11/28 05:25:10;;;;;;;23.95;19.55;;;7.60;99.90;;;;;;4938618;28;92800;-32
2022/11/28 05:27:36;;;;;;;23.20;20.63;;;7.50;99.90;;;;;;4939003;28;93298;-35
2022/11/28 05:30:02;;;;;;;24.83;21.77;;;7.50;99.90;;;;;;4938974;28;96277;-35
2022/11/28 05:32:30;;;;;;;25.00;20.60;;;7.60;99.90;;;;;;4938842;28;93016;-35
2022/11/28 05:34:56;;;;;;;24.55;22.05;;;7.60;99.90;;;;;;4939550;28;93392;-34
2022/11/28 05:37:21;;;;;;;24.27;21.88;;;7.60;99.90;;;;;;4939129;28;94948;-32
2022/11/28 05:39:47;;;;;;;23.00;20.80;;;7.60;99.90;;;;;;4939060;28;94652;-34
2022/11/28 05:42:12;;;;;;;33.58;23.20;;;7.60;99.90;;;;;;4939279;28;92593;-32
2022/11/28 05:44:38;;;;;;;29.15;22.42;;;7.60;99.90;;;;;;4938280;28;93297;-33
2022/11/28 05:47:03;;;;;;;26.10;23.52;;;7.60;99.90;;;;;;4938659;28;95815;-34
2022/11/28 05:49:29;;;;;;;25.77;22.15;;;7.60;99.90;;;;;;4937953;28;95513;-34
2022/11/28 05:51:55;;;;;;;24.58;22.38;;;7.70;99.90;;;;;;4939292;28;93045;-35
2022/11/28 05:54:20;;;;;;;29.17;23.88;;;7.80;99.90;;;;;;4938379;28;93063;-33
2022/11/28 05:56:46;;;;;;;25.60;21.52;;;7.80;99.90;;;;;;4938764;28;95302;-33
2022/11/28 05:59:12;;;;;;;21.88;19.42;;;7.80;99.90;;;;;;4939042;28;94025;-33
2022/11/28 06:01:38;;;;;;;27.17;24.33;;;7.80;99.90;;;;;;4936991;28;94569;-33
2022/11/28 06:04:04;;;;;;;25.38;22.98;;;7.80;99.90;;;;;;4938925;28;92937;-35
2022/11/28 06:06:31;;;;;;;27.88;23.60;;;7.80;99.90;;;;;;4937426;28;94761;-34
2022/11/28 06:08:58;;;;;;;25.75;21.55;;;7.80;99.90;;;;;;4938754;28;95055;-32
2022/11/28 06:11:26;;;;;;;30.55;21.88;;;7.90;99.90;;;;;;4938378;28;93783;-37
2022/11/28 06:13:52;;;;;;;25.45;22.80;;;7.90;99.90;;;;;;4938804;28;93973;-32
2022/11/28 06:16:23;;;;;;;25.48;22.00;;;7.90;99.90;;;;;;4937787;28;94807;-35
2022/11/28 06:18:57;;;;;;;23.25;20.02;;;7.90;99.90;;;;;;4937927;28;94705;-33
2022/11/28 06:21:24;;;;;;;22.23;19.88;;;7.90;99.90;;;;;;4938578;28;94633;-33
2022/11/28 06:23:49;;;;;;;23.35;20.55;;;7.90;99.90;;;;;;4938771;28;94679;-34
2022/11/28 06:26:18;;;;;;;23.88;21.35;;;7.90;99.90;;;;;;4937813;28;94020;-34
2022/11/28 06:28:44;;;;;;;18.50;16.50;;;7.90;99.90;;;;;;4937733;28;94188;-35
2022/11/28 06:31:12;;;;;;;21.35;19.02;;;7.90;99.90;;;;;;4938522;28;92375;-34
2022/11/28 06:33:38;;;;;;;21.98;19.95;;;7.90;99.90;;;;;;4938026;28;93213;-34
2022/11/28 06:36:05;;;;;;;22.60;20.17;;;7.80;99.90;;;;;;4937544;28;95609;-33
2022/11/28 06:38:31;;;;;;;21.70;19.25;;;7.80;99.90;;;;;;4937818;28;94803;-35
2022/11/28 06:40:59;;;;;;;18.83;16.92;;;7.80;99.90;;;;;;4938279;28;94281;-34
2022/11/28 06:43:25;;;;;;;17.73;16.13;;;7.90;99.90;;;;;;4937662;28;92195;-33
2022/11/28 06:45:51;;;;;;;19.48;17.63;;;7.90;99.90;;;;;;4937638;28;94637;-36
2022/11/28 06:48:17;;;;;;;17.80;15.95;;;7.90;99.90;;;;;;4937736;28;94525;-34
2022/11/28 06:50:43;;;;;;;19.45;17.45;;;7.90;99.90;;;;;;4937714;28;93620;-32
2022/11/28 06:53:09;;;;;;;19.58;17.58;;;7.90;99.90;;;;;;4938413;28;91491;-33
2022/11/28 06:55:34;;;;;;;21.05;18.67;;;7.90;99.90;;;;;;4937566;28;94751;-33
2022/11/28 06:58:00;;;;;;;17.45;15.70;;;7.90;99.90;;;;;;4937569;28;94849;-36
2022/11/28 07:00:26;;;;;;;18.52;16.55;;;7.90;99.90;;;;;;4937287;28;95297;-32
2022/11/28 07:02:51;;;;;;;17.83;16.13;;;7.90;99.90;;;;;;4937278;28;92240;-33
2022/11/28 07:05:18;;;;;;;20.58;16.27;;;7.90;99.90;;;;;;4937538;28;94457;-33
2022/11/28 07:07:44;;;;;;;18.25;16.33;;;7.90;99.90;;;;;;4936978;28;93338;-33
2022/11/28 07:10:10;;;;;;;18.30;15.15;;;7.90;99.90;;;;;;4938377;28;93941;-36
2022/11/28 07:12:36;;;;;;;17.13;15.38;;;7.90;99.90;;;;;;4937977;28;94360;-33
2022/11/28 07:15:02;;;;;;;19.23;16.10;;;7.90;99.90;;;;;;4936923;28;95654;-33
2022/11/28 07:17:28;;;;;;;16.60;14.90;;;7.90;99.90;;;;;;4937048;28;94610;-33
2022/11/28 07:19:53;;;;;;;16.75;15.00;;;7.90;99.90;;;;;;4937773;28;94472;-35
2022/11/28 07:22:19;;;;;;;17.80;16.05;;;7.90;99.90;;;;;;4937407;28;92310;-34
2022/11/28 07:24:47;;;;;;;15.85;14.10;;;7.90;99.90;;;;;;4936708;28;95630;-34
2022/11/28 07:27:12;;;;;;;17.63;16.02;;;7.90;99.90;;;;;;4937010;28;95413;-34
2022/11/28 07:29:38;;;;;;;17.52;15.90;;;7.90;99.90;;;;;;4936587;28;94003;-36
2022/11/28 07:32:05;;;;;;;19.13;17.05;;;7.80;99.90;;;;;;4937087;28;93990;-35
2022/11/28 07:34:31;;;;;;;17.27;15.57;;;7.80;99.90;;;;;;4936727;28;94611;-33
2022/11/28 07:36:57;;;;;;;17.85;16.05;;;7.80;99.90;;;;;;4937091;28;94329;-34
2022/11/28 07:39:22;;;;;;;18.63;16.67;;;7.80;99.90;;;;;;4937737;28;93400;-32
2022/11/28 07:41:48;;;;;;;17.30;15.38;;;7.80;99.90;;;;;;4937594;28;91818;-34
2022/11/28 07:44:16;;;;;;;19.70;17.70;;;7.80;99.90;;;;;;4937530;28;95312;-32
2022/11/28 07:46:43;;;;;;;18.70;16.92;;;7.80;99.90;;;;;;4936842;28;95801;-32
2022/11/28 07:49:10;;;;;;;18.23;16.30;;;7.80;99.90;;;;;;4937245;28;93572;-33
2022/11/28 07:51:35;;;;;;;18.02;16.13;;;7.80;99.90;;;;;;4937591;28;93576;-33
2022/11/28 07:54:02;;;;;;;18.27;16.45;;;7.80;99.90;;;;;;4936415;28;94714;-32
2022/11/28 07:56:31;;;;;;;21.88;17.48;;;7.80;99.90;;;;;;4935084;28;94697;-32
2022/11/28 07:58:58;;;;;;;;;;;7.80;99.90;;;;;;4948538;28;93798;-33
2022/11/28 08:01:27;;;;;;;20.40;17.67;;;7.80;99.90;;;;;;4953654;28;92785;-39
2022/11/28 08:03:53;;;;;;;18.83;16.92;;;7.80;99.90;;;;;;4954075;28;93940;-32
2022/11/28 08:06:21;;;;;;;19.52;17.52;;;7.80;99.90;;;;;;4951926;28;94684;-32
2022/11/28 08:08:47;;;;;;;19.55;17.65;;;7.90;99.90;;;;;;4953851;28;94286;-35
2022/11/28 08:11:14;;;;;;;19.40;17.42;;;7.90;99.90;;;;;;4952175;28;92447;-33
2022/11/28 08:13:40;;;;;;;20.83;17.55;;;7.90;99.90;;;;;;4953218;28;95684;-33
2022/11/28 08:16:17;;;;;;;19.90;17.63;;;7.80;99.90;;;;;;4952507;28;95285;-36
2022/11/28 08:18:43;;;;;;;20.83;18.75;;;7.90;99.90;;;;;;4954317;28;92122;-34
2022/11/28 08:21:15;;;;;;;20.00;17.25;;;7.90;99.90;;;;;;4954865;28;93978;-35
2022/11/28 08:23:44;;;;;;;20.27;18.35;;;7.90;99.90;;;;;;4950892;28;94480;-33
2022/11/28 08:26:12;;;;;;;22.05;19.75;;;7.90;99.90;;;;;;4954427;28;93550;-33
2022/11/28 08:28:38;;;;;;;18.95;17.15;;;7.90;99.90;;;;;;4951487;28;92924;-33
2022/11/28 08:31:12;;;;;;;18.65;16.63;;;7.90;99.90;;;;;;4954136;28;93289;-36
2022/11/28 08:33:37;;;;;;;20.65;18.52;;;7.90;99.90;;;;;;4950523;28;95819;-35
2022/11/28 08:36:05;;;;;;;21.33;19.05;;;7.90;99.90;;;;;;4953713;28;94507;-35
2022/11/28 08:38:30;;;;;;;21.20;18.90;;;7.90;99.90;;;;;;4951221;28;93086;-34
2022/11/28 08:41:04;;;;;;;24.50;20.73;;;8.00;99.90;;;;;;4954225;28;93050;-33
2022/11/28 08:43:30;;;;;;;24.48;22.02;;;8.00;99.90;;;;;;4954773;28;94846;-32
2022/11/28 08:45:55;;;;;;;22.67;19.08;;;7.90;99.90;;;;;;4956718;28;95015;-34
2022/11/28 08:48:21;;;;;;;23.05;20.55;;;8.00;99.90;;;;;;4947428;28;93089;-31
2022/11/28 08:50:47;;;;;;;22.67;20.38;;;8.00;99.90;;;;;;4939812;28;93133;-34
2022/11/28 08:53:13;;;;;;;23.88;21.50;;;8.00;99.90;;;;;;4952461;28;94799;-32
2022/11/28 08:55:43;;;;;;;20.85;18.80;;;8.00;99.90;;;;;;4951381;28;94558;-36
2022/11/28 08:58:12;;;;;;;23.17;20.83;;;8.00;99.90;;;;;;4931977;28;93121;-33
2022/11/28 09:00:39;;;;;;;23.10;19.83;;;8.00;99.90;;;;;;4957745;28;93753;-34
2022/11/28 09:03:04;;;;;;;22.10;19.88;;;8.00;99.90;;;;;;4960048;28;94743;-34
2022/11/28 09:05:30;;;;;;;23.83;21.15;;;8.00;99.90;;;;;;4944746;28;95415;-34
2022/11/28 09:07:56;;;;;;;24.25;21.77;;;7.90;99.90;;;;;;4937401;28;93998;-32
2022/11/28 09:10:23;;;;;;;23.45;21.13;;;8.00;99.90;;;;;;4946907;28;93130;-34
2022/11/28 09:12:50;;;;;;;23.83;21.45;;;7.90;99.90;;;;;;4945871;28;94499;-36
2022/11/28 09:15:17;;;;;;;24.60;20.45;;;7.90;99.90;;;;;;4966184;28;94029;-32
2022/11/28 09:17:43;;;;;;;22.70;19.57;;;8.00;99.90;;;;;;4983033;22;94131;-33
2022/11/28 09:20:10;;;;;;;22.52;20.25;;;8.00;99.90;;;;;;4954517;28;92811;-34
2022/11/28 09:22:35;;;;;;;22.70;20.42;;;8.00;99.90;;;;;;4943472;28;94776;-33
2022/11/28 09:25:01;;;;;;;24.48;20.33;;;8.10;99.90;;;;;;4936194;28;93790;-32
2022/11/28 09:27:26;;;;;;;22.55;20.20;;;8.00;99.90;;;;;;4947963;28;94159;-34
2022/11/28 09:29:52;;;;;;;27.30;20.15;;;8.00;99.90;;;;;;4948554;28;92166;-33
2022/11/28 09:32:18;;;;;;;25.08;19.27;;;8.00;99.90;;;;;;4945613;28;95059;-35
2022/11/28 09:34:43;;;;;;;20.08;18.05;;;8.00;99.90;;;;;;4949631;28;95521;-32
2022/11/28 09:37:09;;;;;;;20.55;18.50;;;8.00;99.90;;;;;;4944588;28;93270;-32
2022/11/28 09:39:35;;;;;;;26.80;20.73;;;8.10;99.90;;;;;;4942576;28;94771;-33
2022/11/28 09:42:16;;;;;;;21.40;19.23;;;8.10;99.90;;;;;;4945598;28;94910;-33
2022/11/28 09:45:09;;;;;;;22.60;19.42;;;8.10;99.90;;;;;;4935991;28;96502;-34
2022/11/28 09:47:36;;;;;;;19.65;17.67;;;8.10;99.90;;;;;;4945023;28;94477;-33
2022/11/28 09:50:13;;;;;;;22.42;19.35;;;8.00;99.90;;;;;;4937020;28;93616;-35
2022/11/28 09:52:45;;;;;;;18.48;16.73;;;8.00;99.90;;;;;;4935198;28;95873;-32
2022/11/28 09:55:10;;;;;;;18.75;16.85;;;8.00;99.90;;;;;;4937169;28;95529;-35
2022/11/28 09:57:44;;;;;;;21.73;17.33;;;8.00;99.90;;;;;;4937349;28;94609;-34
2022/11/28 10:00:22;;;;;;;17.77;15.95;;;8.00;99.90;;;;;;4936977;28;94401;-32
2022/11/28 10:02:50;;;;;;;20.77;17.67;;;8.10;99.90;;;;;;4936406;28;94710;-36
2022/11/28 10:05:32;;;;;;;17.38;15.57;;;8.00;99.90;;;;;;4936628;28;94747;-33
2022/11/28 10:08:15;;;;;;;19.25;16.45;;;8.10;99.90;;;;;;4937277;28;92654;-35
2022/11/28 10:10:52;;;;;;;19.35;17.33;;;8.10;99.90;;;;;;4937016;28;93233;-32
2022/11/28 10:13:23;;;;;;;19.50;17.42;;;8.10;99.90;;;;;;4936482;28;94738;-34
2022/11/28 10:15:49;;;;;;;18.02;16.23;;;8.10;99.90;;;;;;4936128;28;95025;-35
2022/11/28 10:18:29;;;;;;;19.67;17.63;;;8.00;99.90;;;;;;4937934;28;94287;-33
2022/11/28 10:21:01;;;;;;;19.35;17.33;;;8.00;99.90;;;;;;4938701;28;93846;-34
2022/11/28 10:23:42;;;;;;;17.92;15.85;;;8.10;99.90;;;;;;4938533;28;95422;-32
2022/11/28 10:26:24;;;;;;;17.85;15.88;;;8.10;99.90;;;;;;4937830;28;96661;-34
2022/11/28 10:28:52;;;;;;;17.80;15.73;;;8.10;99.90;;;;;;4938808;28;93151;-32
2022/11/28 10:31:29;;;;;;;17.50;15.73;;;8.10;99.90;;;;;;4939058;28;92504;-31
2022/11/28 10:34:18;;;;;;;18.33;16.55;;;8.10;99.90;;;;;;4939313;28;95395;-33
2022/11/28 10:36:55;;;;;;;17.50;15.73;;;8.10;99.90;;;;;;4933636;28;94847;-33
2022/11/28 10:39:23;;;;;;;15.60;13.98;;;8.10;99.90;;;;;;4938078;28;92764;-35
2022/11/28 10:42:12;;;;;;;16.90;15.40;;;8.10;99.90;;;;;;4938343;28;93291;-33
2022/11/28 10:44:44;;;;;;;18.50;16.58;;;8.10;99.90;;;;;;4936303;28;95383;-34
2022/11/28 10:47:26;;;;;;;24.33;16.98;;;8.00;99.90;;;;;;4943303;28;95368;-33
2022/11/28 10:49:55;;;;;;;15.82;14.23;;;8.10;99.90;;;;;;4936566;28;92530;-34
2022/11/28 10:52:21;;;;;;;18.92;17.08;;;8.10;99.90;;;;;;4936867;28;93165;-35
2022/11/28 10:55:17;;;;;;;16.75;14.85;;;8.10;99.90;;;;;;4935671;28;95078;-34
2022/11/28 10:57:51;;;;;;;18.17;16.40;;;8.10;99.90;;;;;;4935492;28;94528;-31
2022/11/28 11:00:18;;;;;;;19.63;15.93;;;8.10;99.90;;;;;;4936760;28;92558;-33
2022/11/28 11:02:48;;;;;;;17.85;15.90;;;8.10;99.90;;;;;;4936322;28;93034;-33
2022/11/28 11:05:20;;;;;;;18.33;16.58;;;8.10;99.90;;;;;;4936867;28;94256;-32
2022/11/28 11:08:21;;;;;;;20.23;15.68;;;8.00;99.90;;;;;;4936065;28;94575;-32
2022/11/28 11:10:48;;;;;;;17.05;15.45;;;8.10;99.90;;;;;;4937069;28;94592;-34
2022/11/28 11:13:22;;;;;;;19.25;17.25;;;8.10;99.90;;;;;;4937841;28;92897;-34
2022/11/28 11:16:14;;;;;;;18.90;17.10;;;8.00;99.90;;;;;;4936602;28;94841;-32
2022/11/28 11:18:40;;;;;;;16.42;14.90;;;8.10;99.90;;;;;;4935722;28;94518;-33
2022/11/28 11:21:16;;;;;;;18.23;16.52;;;8.10;99.90;;;;;;4935747;28;93738;-33
2022/11/28 11:23:43;;;;;;;20.88;17.33;;;8.10;99.90;;;;;;4937808;28;92136;-35
2022/11/28 11:26:22;;;;;;;16.30;14.73;;;8.10;99.90;;;;;;4937267;28;96192;-34
2022/11/28 11:28:49;;;;;;;17.13;15.43;;;8.10;99.90;;;;;;4937850;28;96032;-34
2022/11/28 11:31:23;;;;;;;17.05;15.27;;;8.10;99.90;;;;;;4937209;28;92375;-33
2022/11/28 11:34:04;;;;;;;17.08;15.40;;;8.10;99.90;;;;;;4937931;28;94494;-34
2022/11/28 11:36:32;;;;;;;17.70;15.68;;;8.10;99.90;;;;;;4936259;28;96156;-33
2022/11/28 11:39:18;;;;;;;19.50;17.48;;;8.10;99.90;;;;;;4937867;28;95723;-33
2022/11/28 11:41:50;;;;;;;19.58;16.60;;;8.10;99.90;;;;;;4937088;28;93417;-33
2022/11/28 11:44:19;;;;;;;17.75;15.90;;;8.10;99.90;;;;;;4937766;28;93616;-31
2022/11/28 11:46:56;;;;;;;20.45;15.07;;;8.10;99.90;;;;;;4937156;28;93815;-32
2022/11/28 11:49:32;;;;;;;19.35;16.02;;;8.20;99.90;;;;;;4937239;28;93568;-34
2022/11/28 11:52:12;;;;;;;18.13;16.35;;;8.20;99.90;;;;;;4936774;28;93866;-32
2022/11/28 11:54:58;;;;;;;18.48;16.38;;;8.10;99.90;;;;;;4937133;28;93510;-32
2022/11/28 11:57:36;;;;;;;17.45;15.63;;;8.20;99.90;;;;;;4931651;28;94601;-35
2022/11/28 12:00:14;;;;;;;19.13;17.23;;;8.20;99.90;;;;;;4936967;28;94088;-33
2022/11/28 12:02:58;;;;;;;17.60;15.80;;;8.20;99.90;;;;;;4936904;28;95251;-36
2022/11/28 12:05:48;;;;;;;19.65;17.83;;;8.20;99.90;;;;;;4936143;28;92136;-34
2022/11/28 12:08:31;;;;;;;17.55;15.75;;;8.20;99.90;;;;;;4937149;28;96538;-33
2022/11/28 12:11:27;;;;;;;15.38;13.85;;;8.20;99.90;;;;;;4936470;28;93982;-35
2022/11/28 12:13:52;;;;;;;18.75;17.05;;;8.20;99.90;;;;;;4937766;28;94863;-35
2022/11/28 12:16:38;;;;;;;18.15;16.17;;;8.20;99.90;;;;;;4939388;28;93781;-34
2022/11/28 12:19:17;;;;;;;17.77;15.93;;;8.20;99.90;;;;;;4943089;28;94770;-35
2022/11/28 12:22:11;;;;;;;18.60;16.80;;;8.20;99.90;;;;;;4943044;28;94858;-34
2022/11/28 12:24:51;;;;;;;17.75;16.00;;;8.20;99.90;;;;;;4943798;28;92698;-33
2022/11/28 12:27:36;;;;;;;17.98;16.13;;;8.20;99.90;;;;;;4943657;28;95596;-33
2022/11/28 12:30:16;;;;;;;17.98;16.10;;;8.20;99.90;;;;;;4941710;28;96951;-33
2022/11/28 12:33:14;;;;;;;16.65;14.95;;;8.20;99.90;;;;;;4943029;28;95394;-34
2022/11/28 12:35:42;;;;;;;18.13;16.25;;;8.20;99.90;;;;;;4940646;28;92408;-33
2022/11/28 12:38:08;;;;;;;;;;;8.20;99.90;;;;;;4943384;28;95387;-34
2022/11/28 12:41:04;;;;;;;16.88;15.23;;;8.20;99.90;;;;;;4943730;28;94259;-36
2022/11/28 12:43:49;;;;;;;18.10;16.48;;;8.20;99.90;;;;;;4942585;28;95379;-33
2022/11/28 12:46:33;;;;;;;18.63;16.77;;;8.10;99.90;;;;;;4942629;28;94328;-33
2022/11/28 12:49:13;;;;;;;18.35;16.50;;;8.10;99.90;;;;;;4943201;28;92233;-34
2022/11/28 12:51:50;;;;;;;17.90;16.10;;;8.10;99.90;;;;;;4940762;28;94729;-35
2022/11/28 12:54:34;;;;;;;18.17;16.35;;;8.10;99.90;;;;;;4942708;28;94581;-33
2022/11/28 12:57:12;;;;;;;17.63;15.90;;;8.10;99.90;;;;;;4942583;28;94420;-32
2022/11/28 12:59:46;;;;;;;16.67;15.15;;;8.20;99.90;;;;;;4942643;28;92582;-35
2022/11/28 13:02:21;;;;;;;17.95;16.02;;;8.20;99.90;;;;;;4942823;28;94712;-36
2022/11/28 13:04:52;;;;;;;17.25;15.80;;;8.20;99.90;;;;;;4941889;28;93884;-34